createdAt,value
2019-04-28T00:01:51.303Z,91.90
2019-04-28T00:04:21.494Z,91.90
2019-04-28T00:06:51.503Z,91.90
2019-04-28T00:09:23.170Z,91.90
2019-04-28T00:11:52.900Z,91.90
2019-04-28T00:14:22.891Z,91.90
2019-04-28T00:16:52.703Z,91.90
2019-04-28T00:19:24.242Z,91.90
2019-04-28T00:21:55.548Z,91.90
2019-04-28T00:24:35.583Z,91.90
2019-04-28T00:27:05.615Z,91.90
2019-04-28T00:29:40.496Z,91.90
2019-04-28T00:32:07.000Z,91.90
2019-04-28T00:34:36.646Z,91.90
2019-04-28T00:37:17.769Z,91.90
2019-04-28T00:39:50.852Z,91.90
2019-04-28T00:42:22.225Z,91.90
2019-04-28T00:44:51.718Z,91.90
2019-04-28T00:47:21.365Z,91.90
2019-04-28T00:49:51.935Z,91.90
2019-04-28T00:52:22.357Z,91.90
2019-04-28T00:54:52.861Z,91.90
2019-04-28T00:57:22.941Z,91.90
2019-04-28T00:59:58.077Z,91.90
2019-04-28T01:02:27.752Z,91.90
2019-04-28T01:04:57.407Z,91.90
2019-04-28T01:07:27.064Z,91.90
2019-04-28T01:09:56.919Z,91.90
2019-04-28T01:12:28.012Z,91.90
2019-04-28T01:14:59.747Z,91.90
2019-04-28T01:17:30.687Z,91.90
2019-04-28T01:20:04.955Z,91.90
2019-04-28T01:22:35.940Z,91.90
2019-04-28T01:25:07.706Z,91.90
2019-04-28T01:27:37.140Z,91.90
2019-04-28T01:30:11.279Z,91.90
2019-04-28T01:32:42.805Z,91.90
2019-04-28T01:35:13.068Z,91.90
2019-04-28T01:37:42.710Z,91.90
2019-04-28T01:40:12.439Z,91.90
2019-04-28T01:42:42.086Z,91.90
2019-04-28T01:45:11.884Z,91.90
2019-04-28T01:47:41.614Z,91.90
2019-04-28T01:50:11.480Z,91.90
2019-04-28T01:52:41.128Z,91.90
2019-04-28T01:55:10.859Z,91.90
2019-04-28T01:57:40.505Z,91.90
2019-04-28T02:00:22.367Z,91.90
2019-04-28T02:02:44.365Z,91.90
2019-04-28T02:05:15.053Z,91.90
2019-04-28T02:07:44.707Z,91.90
2019-04-28T02:10:14.488Z,91.90
2019-04-28T02:12:44.156Z,91.90
2019-04-28T02:15:14.209Z,91.90
2019-04-28T02:17:43.867Z,91.90
2019-04-28T02:20:13.651Z,91.90
2019-04-28T02:22:50.403Z,91.90
2019-04-28T02:25:21.387Z,91.90
2019-04-28T02:27:51.148Z,91.90
2019-04-28T02:30:26.522Z,91.90
2019-04-28T02:32:52.252Z,91.90
2019-04-28T02:35:21.893Z,91.90
2019-04-28T02:37:51.548Z,91.90
2019-04-28T02:40:21.205Z,91.90
2019-04-28T02:42:52.512Z,91.90
2019-04-28T02:45:22.940Z,91.90
2019-04-28T02:47:54.238Z,91.90
2019-04-28T02:50:25.528Z,91.90
2019-04-28T02:52:56.817Z,91.90
2019-04-28T02:55:26.475Z,91.90
2019-04-28T02:57:56.198Z,91.90
2019-04-28T03:00:25.938Z,91.90
2019-04-28T03:02:55.564Z,91.90
2019-04-28T03:05:25.289Z,91.90
2019-04-28T03:07:55.152Z,91.90
2019-04-28T03:10:24.950Z,91.90
2019-04-28T03:12:54.608Z,91.90
2019-04-28T03:15:24.319Z,91.90
2019-04-28T03:17:55.770Z,91.90
2019-04-28T03:20:25.383Z,91.90
2019-04-28T03:22:55.098Z,91.90
2019-04-28T03:25:30.225Z,91.90
2019-04-28T03:28:02.276Z,91.90
2019-04-28T03:30:34.492Z,91.90
2019-04-28T03:33:17.024Z,91.90
2019-04-28T03:35:38.483Z,91.90
2019-04-28T03:38:10.738Z,91.90
2019-04-28T03:40:41.427Z,91.90
2019-04-28T03:43:14.494Z,91.90
2019-04-28T03:45:45.298Z,91.90
2019-04-28T03:48:14.947Z,91.90
2019-04-28T03:50:44.604Z,91.90
2019-04-28T03:53:14.309Z,91.90
2019-04-28T03:55:43.951Z,91.90
2019-04-28T03:58:13.606Z,91.90
2019-04-28T04:00:43.258Z,91.90
2019-04-28T04:03:12.900Z,91.90
2019-04-28T04:05:42.547Z,91.90
2019-04-28T04:08:13.316Z,91.90
2019-04-28T04:10:44.598Z,91.90
2019-04-28T04:13:20.108Z,91.90
2019-04-28T04:15:54.962Z,91.90
2019-04-28T04:18:42.502Z,91.90
2019-04-28T04:21:12.596Z,91.90
2019-04-28T04:23:42.315Z,91.90
2019-04-28T04:26:12.067Z,91.90
2019-04-28T04:28:42.050Z,91.90
2019-04-28T04:31:11.836Z,91.90
2019-04-28T04:33:41.652Z,91.90
2019-04-28T04:36:12.060Z,91.90
2019-04-28T04:38:45.795Z,91.90
2019-04-28T04:41:13.164Z,91.90
2019-04-28T04:43:42.828Z,91.90
2019-04-28T04:46:14.658Z,91.90
2019-04-28T04:48:45.759Z,91.90
2019-04-28T04:51:15.668Z,91.90
2019-04-28T04:53:45.325Z,91.90
2019-04-28T04:56:14.979Z,91.90
2019-04-28T04:58:44.720Z,91.90
2019-04-28T05:01:22.274Z,91.90
2019-04-28T05:03:53.569Z,91.90
2019-04-28T05:06:37.158Z,91.90
2019-04-28T05:09:11.368Z,91.90
2019-04-28T05:11:41.256Z,91.90
2019-04-28T05:14:12.548Z,91.90
2019-04-28T05:16:42.208Z,91.90
2019-04-28T05:19:11.851Z,91.90
2019-04-28T05:21:41.511Z,91.90
2019-04-28T05:24:15.631Z,91.90
2019-04-28T05:26:47.925Z,91.90
2019-04-28T05:29:19.930Z,91.90
2019-04-28T05:31:54.848Z,91.90
2019-04-28T05:34:24.110Z,91.90
2019-04-28T05:36:53.808Z,91.90
2019-04-28T05:39:23.465Z,91.90
2019-04-28T05:41:53.113Z,91.90
2019-04-28T05:44:23.323Z,91.90
2019-04-28T05:46:52.976Z,91.90
2019-04-28T05:49:22.463Z,91.90
2019-04-28T05:51:56.429Z,91.90
2019-04-28T05:54:27.717Z,91.90
2019-04-28T05:57:02.140Z,91.90
2019-04-28T05:59:42.018Z,91.90
2019-04-28T06:02:13.303Z,91.90
2019-04-28T06:04:42.949Z,91.90
2019-04-28T06:07:14.247Z,91.90
2019-04-28T06:09:45.530Z,91.90
2019-04-28T06:12:17.030Z,91.90
2019-04-28T06:14:46.680Z,91.90
2019-04-28T06:17:16.336Z,91.90
2019-04-28T06:19:45.984Z,91.90
2019-04-28T06:22:17.817Z,91.90
2019-04-28T06:24:47.006Z,91.90
2019-04-28T06:27:16.654Z,91.90
2019-04-28T06:29:46.304Z,91.90
2019-04-28T06:32:16.091Z,91.90
2019-04-28T06:34:45.803Z,91.90
2019-04-28T06:37:15.449Z,91.90
2019-04-28T06:39:47.292Z,91.90
2019-04-28T06:42:16.491Z,91.90
2019-04-28T06:44:46.145Z,91.90
2019-04-28T06:47:16.878Z,91.90
2019-04-28T06:49:46.728Z,91.90
2019-04-28T06:52:16.377Z,91.90
2019-04-28T06:54:46.031Z,91.90
2019-04-28T06:57:15.687Z,91.90
2019-04-28T06:59:46.581Z,91.90
2019-04-28T07:02:16.336Z,91.90
2019-04-28T07:04:45.953Z,91.90
2019-04-28T07:07:15.604Z,91.90
2019-04-28T07:09:45.260Z,91.90
2019-04-28T07:12:14.904Z,91.80
2019-04-28T07:14:45.577Z,91.90
2019-04-28T07:17:15.237Z,91.90
2019-04-28T07:19:46.531Z,91.90
2019-04-28T07:22:26.830Z,91.00
2019-04-28T07:24:56.484Z,91.90
2019-04-28T07:27:26.208Z,90.30
2019-04-28T07:29:55.854Z,89.20
2019-04-28T07:32:25.567Z,89.50
2019-04-28T07:34:55.212Z,88.90
2019-04-28T07:37:26.402Z,88.10
2019-04-28T07:39:56.816Z,88.20
2019-04-28T07:42:27.724Z,87.00
2019-04-28T07:44:57.415Z,88.90
2019-04-28T07:47:27.124Z,87.50
2019-04-28T07:49:56.795Z,88.10
2019-04-28T07:52:28.084Z,86.70
2019-04-28T07:54:57.816Z,86.40
2019-04-28T07:57:28.887Z,87.40
2019-04-28T07:59:58.535Z,88.70
2019-04-28T08:02:28.252Z,88.10
2019-04-28T08:04:58.001Z,87.90
2019-04-28T08:07:27.720Z,88.20
2019-04-28T08:09:57.368Z,87.30
2019-04-28T08:12:27.025Z,87.70
2019-04-28T08:14:56.686Z,88.10
2019-04-28T08:17:26.339Z,88.10
2019-04-28T08:19:57.301Z,85.20
2019-04-28T08:22:27.468Z,86.10
2019-04-28T08:24:57.167Z,86.40
2019-04-28T08:27:26.818Z,86.20
2019-04-28T08:29:58.667Z,86.40
2019-04-28T08:32:35.771Z,85.50
2019-04-28T08:35:07.245Z,83.90
2019-04-28T08:37:36.911Z,83.00
2019-04-28T08:40:06.909Z,85.20
2019-04-28T08:42:36.571Z,85.00
2019-04-28T08:45:08.242Z,85.10
2019-04-28T08:47:37.906Z,85.30
2019-04-28T08:50:08.370Z,84.90
2019-04-28T08:52:38.010Z,86.40
2019-04-28T08:55:08.083Z,85.90
2019-04-28T08:57:37.761Z,86.70
2019-04-28T09:00:10.338Z,85.60
2019-04-28T09:02:39.990Z,85.30
2019-04-28T09:05:09.982Z,85.40
2019-04-28T09:07:39.649Z,84.30
2019-04-28T09:10:09.652Z,85.00
2019-04-28T09:12:39.381Z,83.10
2019-04-28T09:15:09.760Z,85.30
2019-04-28T09:17:39.420Z,84.60
2019-04-28T09:20:10.610Z,83.70
2019-04-28T09:22:40.268Z,84.80
2019-04-28T09:25:10.129Z,85.00
2019-04-28T09:27:39.799Z,85.00
2019-04-28T09:30:09.590Z,85.00
2019-04-28T09:32:40.478Z,83.60
2019-04-28T09:35:12.077Z,82.60
2019-04-28T09:37:41.750Z,81.40
2019-04-28T09:40:14.596Z,82.40
2019-04-28T09:42:52.097Z,81.90
2019-04-28T09:45:38.024Z,83.20
2019-04-28T09:48:07.690Z,81.20
2019-04-28T09:50:37.342Z,80.40
2019-04-28T09:53:07.009Z,80.00
2019-04-28T09:55:37.895Z,79.90
2019-04-28T09:58:07.655Z,77.80
2019-04-28T10:00:39.083Z,78.40
2019-04-28T10:03:08.810Z,77.20
2019-04-28T10:05:38.543Z,77.40
2019-04-28T10:08:08.273Z,79.00
2019-04-28T10:10:37.942Z,79.50
2019-04-28T10:13:07.640Z,78.90
2019-04-28T10:15:37.382Z,79.00
2019-04-28T10:18:07.189Z,76.00
2019-04-28T10:20:36.847Z,74.80
2019-04-28T10:23:06.506Z,77.00
2019-04-28T10:25:36.165Z,76.30
2019-04-28T10:28:05.823Z,75.70
2019-04-28T10:30:35.498Z,76.50
2019-04-28T10:33:05.322Z,76.30
2019-04-28T10:35:34.989Z,75.80
2019-04-28T10:38:04.983Z,75.00
2019-04-28T10:40:44.965Z,76.80
2019-04-28T10:43:14.627Z,83.30
2019-04-28T10:45:50.250Z,82.50
2019-04-28T10:48:20.166Z,82.70
2019-04-28T10:50:49.889Z,84.40
2019-04-28T10:53:19.571Z,85.30
2019-04-28T10:55:49.227Z,86.20
2019-04-28T10:58:18.980Z,87.40
2019-04-28T11:00:48.639Z,81.80
2019-04-28T11:03:18.318Z,80.40
2019-04-28T11:05:47.974Z,82.20
2019-04-28T11:08:19.337Z,77.50
2019-04-28T11:10:49.069Z,77.30
2019-04-28T11:13:18.806Z,79.00
2019-04-28T11:15:48.542Z,77.50
2019-04-28T11:18:20.001Z,73.60
2019-04-28T11:20:49.636Z,74.20
2019-04-28T11:23:19.296Z,72.60
2019-04-28T11:25:49.088Z,70.00
2019-04-28T11:28:18.749Z,69.90
2019-04-28T11:30:48.460Z,70.10
2019-04-28T11:33:32.920Z,70.20
2019-04-28T11:36:02.683Z,70.10
2019-04-28T11:38:32.335Z,69.40
2019-04-28T11:41:02.011Z,69.40
2019-04-28T11:43:31.652Z,70.20
2019-04-28T11:46:01.708Z,67.10
2019-04-28T11:48:31.359Z,65.90
2019-04-28T11:51:02.662Z,68.20
2019-04-28T11:53:32.328Z,65.40
2019-04-28T11:56:01.982Z,66.40
2019-04-28T11:58:31.686Z,65.10
2019-04-28T12:01:03.212Z,64.70
2019-04-28T12:03:32.856Z,61.60
2019-04-28T12:06:02.523Z,62.80
2019-04-28T12:08:32.180Z,61.30
2019-04-28T12:11:03.468Z,62.10
2019-04-28T12:13:32.902Z,62.00
2019-04-28T12:16:06.897Z,63.60
2019-04-28T12:18:42.049Z,64.40
2019-04-28T12:21:11.770Z,65.90
2019-04-28T12:23:41.514Z,65.10
2019-04-28T12:26:11.168Z,67.20
2019-04-28T12:28:40.874Z,69.50
2019-04-28T12:31:10.487Z,72.10
2019-04-28T12:33:40.146Z,70.50
2019-04-28T12:36:09.980Z,70.10
2019-04-28T12:38:39.651Z,68.80
2019-04-28T12:41:09.301Z,67.60
2019-04-28T12:43:38.980Z,69.50
2019-04-28T12:46:08.771Z,70.90
2019-04-28T12:48:38.434Z,71.20
2019-04-28T12:51:08.157Z,70.70
2019-04-28T12:53:37.810Z,70.70
2019-04-28T12:56:07.483Z,70.10
2019-04-28T12:58:37.159Z,71.50
2019-04-28T13:01:08.118Z,71.30
2019-04-28T13:03:51.669Z,72.30
2019-04-28T13:06:23.199Z,71.50
2019-04-28T13:08:52.862Z,70.30
2019-04-28T13:11:22.579Z,70.50
2019-04-28T13:13:52.252Z,68.20
2019-04-28T13:16:21.976Z,67.20
2019-04-28T13:18:51.627Z,67.80
2019-04-28T13:21:21.284Z,67.90
2019-04-28T13:23:50.950Z,65.60
2019-04-28T13:26:21.086Z,63.40
2019-04-28T13:28:53.291Z,61.20
2019-04-28T13:31:24.070Z,63.20
2019-04-28T13:33:56.640Z,64.10
2019-04-28T13:36:25.733Z,64.50
2019-04-28T13:38:57.042Z,64.80
2019-04-28T13:41:26.714Z,60.90
2019-04-28T13:43:56.372Z,51.70
2019-04-28T13:46:26.107Z,52.80
2019-04-28T13:48:55.754Z,49.10
2019-04-28T13:51:27.625Z,44.90
2019-04-28T13:53:57.277Z,50.20
2019-04-28T13:56:27.036Z,53.30
2019-04-28T13:58:58.324Z,50.50
2019-04-28T14:01:38.905Z,47.10
2019-04-28T14:04:11.706Z,44.30
2019-04-28T14:06:43.678Z,42.20
2019-04-28T14:09:15.646Z,42.00
2019-04-28T14:11:46.355Z,43.70
2019-04-28T14:14:16.618Z,44.40
2019-04-28T14:16:46.938Z,44.60
2019-04-28T14:19:17.182Z,47.40
2019-04-28T14:21:47.505Z,47.40
2019-04-28T14:24:17.727Z,46.40
2019-04-28T14:26:48.020Z,49.30
2019-04-28T14:29:19.020Z,53.00
2019-04-28T14:31:48.661Z,54.70
2019-04-28T14:34:18.323Z,55.70
2019-04-28T14:36:48.557Z,49.70
2019-04-28T14:39:18.849Z,42.00
2019-04-28T14:41:49.014Z,40.40
2019-04-28T14:44:19.246Z,38.20
2019-04-28T14:46:49.544Z,41.70
2019-04-28T14:49:19.843Z,47.20
2019-04-28T14:51:49.488Z,51.30
2019-04-28T14:54:19.810Z,51.30
2019-04-28T14:56:51.771Z,45.50
2019-04-28T14:59:22.079Z,42.80
2019-04-28T15:02:11.917Z,40.70
2019-04-28T15:05:00.158Z,40.80
2019-04-28T15:07:48.404Z,43.80
2019-04-28T15:10:18.659Z,41.50
2019-04-28T15:12:48.962Z,37.60
2019-04-28T15:15:20.152Z,40.90
2019-04-28T15:17:50.494Z,41.00
2019-04-28T15:20:20.423Z,40.40
2019-04-28T15:22:50.406Z,37.30
2019-04-28T15:25:20.352Z,37.10
2019-04-28T15:27:50.288Z,36.20
2019-04-28T15:30:20.359Z,37.10
2019-04-28T15:32:50.286Z,36.70
2019-04-28T15:35:20.304Z,36.70
2019-04-28T15:37:50.375Z,37.50
2019-04-28T15:40:20.303Z,38.00
2019-04-28T15:42:50.240Z,37.80
2019-04-28T15:45:21.378Z,37.10
2019-04-28T15:47:52.894Z,36.30
2019-04-28T15:50:25.190Z,34.50
2019-04-28T15:52:54.574Z,35.50
2019-04-28T15:55:28.598Z,37.60
2019-04-28T15:58:00.451Z,41.70
2019-04-28T16:00:30.697Z,42.80
2019-04-28T16:03:00.914Z,45.80
2019-04-28T16:05:30.582Z,45.20
2019-04-28T16:08:00.239Z,46.50
2019-04-28T16:10:29.895Z,47.80
2019-04-28T16:12:59.550Z,48.80
2019-04-28T16:15:29.215Z,49.80
2019-04-28T16:17:58.870Z,52.90
2019-04-28T16:20:29.834Z,51.30
2019-04-28T16:22:59.571Z,52.30
2019-04-28T16:25:29.230Z,52.40
2019-04-28T16:28:00.194Z,53.70
2019-04-28T16:30:29.910Z,53.30
2019-04-28T16:32:59.573Z,53.50
2019-04-28T16:35:29.226Z,54.30
2019-04-28T16:37:58.893Z,55.20
2019-04-28T16:40:29.222Z,54.60
2019-04-28T16:43:03.848Z,56.60
2019-04-28T16:45:33.575Z,56.80
2019-04-28T16:48:03.253Z,57.20
2019-04-28T16:50:33.920Z,57.00
2019-04-28T16:53:03.651Z,57.40
2019-04-28T16:55:40.976Z,57.00
2019-04-28T16:58:30.287Z,58.50
2019-04-28T17:01:20.034Z,57.80
2019-04-28T17:03:49.683Z,57.20
2019-04-28T17:06:19.340Z,57.50
2019-04-28T17:08:49.006Z,58.30
2019-04-28T17:11:18.821Z,58.80
2019-04-28T17:13:48.551Z,59.90
2019-04-28T17:16:18.293Z,60.90
2019-04-28T17:18:47.959Z,60.70
2019-04-28T17:21:17.807Z,61.80
2019-04-28T17:23:47.533Z,62.90
2019-04-28T17:26:17.194Z,61.90
2019-04-28T17:28:47.186Z,61.50
2019-04-28T17:31:19.226Z,60.40
2019-04-28T17:33:50.396Z,61.60
2019-04-28T17:36:20.047Z,62.40
2019-04-28T17:38:50.748Z,63.50
2019-04-28T17:41:21.026Z,62.90
2019-04-28T17:43:50.673Z,64.10
2019-04-28T17:46:21.006Z,65.50
2019-04-28T17:48:52.850Z,64.70
2019-04-28T17:51:22.586Z,66.40
2019-04-28T17:53:53.525Z,67.30
2019-04-28T17:56:23.133Z,68.30
2019-04-28T17:58:52.785Z,68.70
2019-04-28T18:01:35.831Z,68.00
2019-04-28T18:04:07.466Z,67.90
2019-04-28T18:06:50.921Z,67.90
2019-04-28T18:09:22.383Z,69.20
2019-04-28T18:11:52.036Z,70.50
2019-04-28T18:14:22.829Z,71.70
2019-04-28T18:16:57.936Z,72.50
2019-04-28T18:19:28.172Z,73.00
2019-04-28T18:21:57.818Z,73.30
2019-04-28T18:24:27.485Z,73.70
2019-04-28T18:26:57.130Z,74.30
2019-04-28T18:29:26.775Z,75.40
2019-04-28T18:32:13.894Z,76.00
2019-04-28T18:34:45.264Z,77.40
2019-04-28T18:37:32.414Z,76.50
2019-04-28T18:40:03.722Z,77.10
2019-04-28T18:42:44.004Z,76.90
2019-04-28T18:45:14.486Z,77.20
2019-04-28T18:47:44.143Z,77.60
2019-04-28T18:50:17.762Z,76.80
2019-04-28T18:52:47.414Z,77.00
2019-04-28T18:55:17.068Z,76.80
2019-04-28T18:57:46.785Z,76.10
2019-04-28T19:00:18.347Z,76.00
2019-04-28T19:02:48.676Z,75.60
2019-04-28T19:05:19.070Z,75.50
2019-04-28T19:07:48.496Z,75.20
2019-04-28T19:10:25.666Z,75.40
2019-04-28T19:13:04.556Z,75.90
2019-04-28T19:15:43.706Z,75.90
2019-04-28T19:18:16.084Z,76.40
2019-04-28T19:20:45.733Z,77.20
2019-04-28T19:23:15.467Z,78.40
2019-04-28T19:25:45.117Z,77.30
2019-04-28T19:28:14.786Z,77.90
2019-04-28T19:30:45.676Z,78.00
2019-04-28T19:33:15.539Z,78.40
2019-04-28T19:35:45.183Z,79.30
2019-04-28T19:38:14.841Z,79.80
2019-04-28T19:40:44.487Z,79.60
2019-04-28T19:43:14.152Z,78.70
2019-04-28T19:45:45.457Z,78.80
2019-04-28T19:48:16.584Z,79.10
2019-04-28T19:50:46.161Z,79.30
2019-04-28T19:53:15.825Z,78.90
2019-04-28T19:55:56.187Z,79.40
2019-04-28T19:58:27.495Z,79.50
2019-04-28T20:00:58.869Z,79.90
2019-04-28T20:03:28.518Z,79.80
2019-04-28T20:05:58.177Z,80.30
2019-04-28T20:08:27.892Z,80.60
2019-04-28T20:10:57.556Z,80.30
2019-04-28T20:13:27.209Z,80.70
2019-04-28T20:15:56.930Z,80.90
2019-04-28T20:18:29.551Z,81.00
2019-04-28T20:20:59.190Z,80.70
2019-04-28T20:23:28.871Z,81.00
2019-04-28T20:25:58.522Z,81.60
2019-04-28T20:28:28.184Z,81.80
2019-04-28T20:30:57.847Z,81.60
2019-04-28T20:33:27.501Z,81.60
2019-04-28T20:35:58.789Z,81.60
2019-04-28T20:38:32.094Z,81.90
2019-04-28T20:41:03.644Z,81.50
2019-04-28T20:43:33.325Z,81.70
2019-04-28T20:46:02.962Z,81.90
2019-04-28T20:48:32.634Z,81.90
2019-04-28T20:51:02.365Z,82.10
2019-04-28T20:53:32.006Z,82.00
2019-04-28T20:56:01.680Z,81.80
2019-04-28T20:58:31.411Z,81.90
2019-04-28T21:01:01.191Z,82.10
2019-04-28T21:03:30.851Z,81.80
2019-04-28T21:06:00.505Z,82.00
2019-04-28T21:08:30.238Z,82.20
2019-04-28T21:10:59.885Z,82.10
2019-04-28T21:13:29.531Z,83.70
2019-04-28T21:15:59.192Z,85.40
2019-04-28T21:18:28.908Z,85.00
2019-04-28T21:20:58.557Z,84.40
2019-04-28T21:23:28.218Z,84.00
2019-04-28T21:25:57.886Z,84.00
2019-04-28T21:28:27.587Z,84.30
2019-04-28T21:30:57.240Z,85.20
2019-04-28T21:33:27.285Z,85.20
2019-04-28T21:35:57.748Z,85.10
2019-04-28T21:38:27.960Z,84.50
2019-04-28T21:40:57.622Z,84.60
2019-04-28T21:43:28.910Z,84.40
2019-04-28T21:46:16.283Z,85.00
2019-04-28T21:48:50.425Z,85.90
2019-04-28T21:51:20.087Z,86.00
2019-04-28T21:53:49.737Z,85.50
2019-04-28T21:56:20.448Z,85.20
2019-04-28T21:58:50.571Z,85.60
2019-04-28T22:01:23.715Z,85.30
2019-04-28T22:03:53.378Z,85.60
2019-04-28T22:06:23.031Z,85.90
2019-04-28T22:08:52.693Z,86.90
2019-04-28T22:11:22.417Z,87.60
2019-04-28T22:13:52.081Z,86.70
2019-04-28T22:16:21.738Z,85.70
2019-04-28T22:18:51.392Z,85.40
2019-04-28T22:21:21.048Z,85.70
2019-04-28T22:24:04.122Z,85.60
2019-04-28T22:26:43.482Z,86.30
2019-04-28T22:29:14.526Z,86.10
2019-04-28T22:31:45.146Z,87.70
2019-04-28T22:34:15.567Z,89.30
2019-04-28T22:36:46.935Z,87.80
2019-04-28T22:39:16.892Z,87.00
2019-04-28T22:41:46.558Z,86.20
2019-04-28T22:44:16.222Z,86.70
2019-04-28T22:46:45.888Z,86.90
2019-04-28T22:49:15.556Z,86.60
2019-04-28T22:51:45.221Z,87.00
2019-04-28T22:54:18.916Z,87.20
2019-04-28T22:56:50.259Z,86.60
2019-04-28T22:59:21.515Z,87.00
2019-04-28T23:01:55.944Z,86.50
2019-04-28T23:04:42.162Z,87.50
2019-04-28T23:07:11.984Z,87.40
2019-04-28T23:09:41.700Z,86.60
2019-04-28T23:12:11.655Z,86.90
2019-04-28T23:14:41.318Z,87.20
2019-04-28T23:17:12.736Z,87.90
2019-04-28T23:19:43.819Z,88.00
2019-04-28T23:22:18.902Z,88.10
2019-04-28T23:24:48.559Z,89.00
2019-04-28T23:27:18.207Z,88.90
2019-04-28T23:29:47.883Z,89.30
2019-04-28T23:32:17.528Z,89.10
2019-04-28T23:34:47.270Z,90.30
2019-04-28T23:37:16.996Z,89.90
2019-04-28T23:39:46.713Z,89.60
2019-04-28T23:42:24.026Z,90.40
2019-04-28T23:44:53.697Z,91.00
2019-04-28T23:47:23.355Z,90.20
2019-04-28T23:49:53.099Z,91.50
2019-04-28T23:52:27.335Z,90.20
2019-04-28T23:55:01.995Z,90.80
2019-04-28T23:57:31.714Z,90.60
